sensor_id;sensor_type;location;lat;lon;timestamp;pressure;altitude;pressure_sealevel;temperature;humidity
30598;BME280;17365;48.878;8.334;2023-03-16T00:00:32;100493.28;;;2.19;93.65
30598;BME280;17365;48.878;8.334;2023-03-16T00:02:58;100494.28;;;2.22;93.56
30598;BME280;17365;48.878;8.334;2023-03-16T00:05:23;100503.31;;;2.14;94.95
30598;BME280;17365;48.878;8.334;2023-03-16T00:07:49;100498.81;;;2.28;93.44
30598;BME280;17365;48.878;8.334;2023-03-16T00:10:15;100503.91;;;2.28;92.62
30598;BME280;17365;48.878;8.334;2023-03-16T00:12:41;100500.97;;;2.19;93.02
30598;BME280;17365;48.878;8.334;2023-03-16T00:15:07;100499.75;;;1.90;93.91
30598;BME280;17365;48.878;8.334;2023-03-16T00:17:33;100500.59;;;1.90;94.54
30598;BME280;17365;48.878;8.334;2023-03-16T00:19:58;100509.16;;;1.91;94.81
30598;BME280;17365;48.878;8.334;2023-03-16T00:22:25;100512.63;;;2.12;93.85
30598;BME280;17365;48.878;8.334;2023-03-16T00:24:50;100507.66;;;2.15;93.35
30598;BME280;17365;48.878;8.334;2023-03-16T00:27:16;100507.06;;;2.01;93.96
30598;BME280;17365;48.878;8.334;2023-03-16T00:29:45;100516.00;;;2.11;94.03
30598;BME280;17365;48.878;8.334;2023-03-16T00:32:18;100518.66;;;1.93;94.24
30598;BME280;17365;48.878;8.334;2023-03-16T00:34:44;100515.31;;;1.94;93.34
30598;BME280;17365;48.878;8.334;2023-03-16T00:37:10;100514.94;;;2.06;93.13
30598;BME280;17365;48.878;8.334;2023-03-16T00:39:38;100519.13;;;2.04;92.83
30598;BME280;17365;48.878;8.334;2023-03-16T00:42:03;100514.34;;;1.92;92.62
30598;BME280;17365;48.878;8.334;2023-03-16T00:44:28;100507.69;;;1.96;92.58
30598;BME280;17365;48.878;8.334;2023-03-16T00:46:53;100505.66;;;1.69;92.79
30598;BME280;17365;48.878;8.334;2023-03-16T00:49:18;100505.22;;;1.39;94.68
30598;BME280;17365;48.878;8.334;2023-03-16T00:51:44;100501.63;;;1.16;96.31
30598;BME280;17365;48.878;8.334;2023-03-16T00:54:10;100491.47;;;1.18;97.23
30598;BME280;17365;48.878;8.334;2023-03-16T00:56:35;100486.25;;;1.54;96.69
30598;BME280;17365;48.878;8.334;2023-03-16T00:59:00;100494.53;;;1.48;95.79
30598;BME280;17365;48.878;8.334;2023-03-16T01:01:26;100495.59;;;1.53;95.29
30598;BME280;17365;48.878;8.334;2023-03-16T01:03:51;100497.75;;;1.25;96.82
30598;BME280;17365;48.878;8.334;2023-03-16T01:06:16;100500.84;;;1.37;95.73
30598;BME280;17365;48.878;8.334;2023-03-16T01:08:44;100496.06;;;1.44;95.51
30598;BME280;17365;48.878;8.334;2023-03-16T01:11:10;100493.84;;;1.52;94.98
30598;BME280;17365;48.878;8.334;2023-03-16T01:13:36;100494.88;;;1.36;95.31
30598;BME280;17365;48.878;8.334;2023-03-16T01:16:01;100483.97;;;1.60;94.40
30598;BME280;17365;48.878;8.334;2023-03-16T01:18:28;100492.50;;;1.60;94.21
30598;BME280;17365;48.878;8.334;2023-03-16T01:20:53;100495.53;;;1.52;93.86
30598;BME280;17365;48.878;8.334;2023-03-16T01:23:19;100488.25;;;1.41;94.97
30598;BME280;17365;48.878;8.334;2023-03-16T01:25:44;100486.66;;;1.63;93.45
30598;BME280;17365;48.878;8.334;2023-03-16T01:28:20;100495.44;;;1.31;93.78
30598;BME280;17365;48.878;8.334;2023-03-16T01:30:48;100484.56;;;1.15;95.24
30598;BME280;17365;48.878;8.334;2023-03-16T01:33:13;100476.66;;;1.11;95.08
30598;BME280;17365;48.878;8.334;2023-03-16T01:35:39;100471.09;;;1.20;95.36
30598;BME280;17365;48.878;8.334;2023-03-16T01:38:04;100475.13;;;1.34;94.83
30598;BME280;17365;48.878;8.334;2023-03-16T01:40:29;100473.38;;;1.33;94.30
30598;BME280;17365;48.878;8.334;2023-03-16T01:43:02;100463.16;;;1.33;94.10
30598;BME280;17365;48.878;8.334;2023-03-16T01:48:12;100451.53;;;1.20;94.33
30598;BME280;17365;48.878;8.334;2023-03-16T01:50:38;100443.13;;;1.42;93.58
30598;BME280;17365;48.878;8.334;2023-03-16T01:53:04;100435.88;;;1.32;94.08
30598;BME280;17365;48.878;8.334;2023-03-16T01:55:29;100444.97;;;1.25;93.35
30598;BME280;17365;48.878;8.334;2023-03-16T01:57:55;100446.50;;;1.41;93.47
30598;BME280;17365;48.878;8.334;2023-03-16T02:00:20;100449.59;;;1.14;94.37
30598;BME280;17365;48.878;8.334;2023-03-16T02:02:51;100460.94;;;1.21;93.77
30598;BME280;17365;48.878;8.334;2023-03-16T02:05:20;100469.78;;;1.28;93.29
30598;BME280;17365;48.878;8.334;2023-03-16T02:07:47;100475.22;;;1.16;92.74
30598;BME280;17365;48.878;8.334;2023-03-16T02:10:13;100483.25;;;1.06;93.94
30598;BME280;17365;48.878;8.334;2023-03-16T02:12:39;100481.63;;;1.08;93.73
30598;BME280;17365;48.878;8.334;2023-03-16T02:15:04;100481.34;;;1.02;94.50
30598;BME280;17365;48.878;8.334;2023-03-16T02:17:30;100469.31;;;0.99;94.47
30598;BME280;17365;48.878;8.334;2023-03-16T02:20:02;100467.94;;;0.88;95.65
30598;BME280;17365;48.878;8.334;2023-03-16T02:22:33;100460.81;;;0.81;95.60
30598;BME280;17365;48.878;8.334;2023-03-16T02:25:00;100456.53;;;0.99;95.23
30598;BME280;17365;48.878;8.334;2023-03-16T02:28:13;100447.75;;;1.12;94.17
30598;BME280;17365;48.878;8.334;2023-03-16T02:30:15;100432.75;;;1.00;94.22
30598;BME280;17365;48.878;8.334;2023-03-16T02:32:40;100436.53;;;1.08;93.70
30598;BME280;17365;48.878;8.334;2023-03-16T02:35:07;100425.41;;;0.88;94.42
30598;BME280;17365;48.878;8.334;2023-03-16T02:37:32;100431.31;;;0.68;95.33
30598;BME280;17365;48.878;8.334;2023-03-16T02:39:58;100428.47;;;0.44;96.33
30598;BME280;17365;48.878;8.334;2023-03-16T02:42:24;100427.38;;;0.39;97.14
30598;BME280;17365;48.878;8.334;2023-03-16T02:44:57;100424.03;;;0.58;96.69
30598;BME280;17365;48.878;8.334;2023-03-16T02:47:27;100417.25;;;0.78;95.77
30598;BME280;17365;48.878;8.334;2023-03-16T02:49:54;100414.69;;;0.78;95.23
30598;BME280;17365;48.878;8.334;2023-03-16T02:52:19;100412.19;;;0.97;95.25
30598;BME280;17365;48.878;8.334;2023-03-16T02:54:44;100411.78;;;1.07;93.74
30598;BME280;17365;48.878;8.334;2023-03-16T02:57:09;100413.06;;;0.98;93.46
30598;BME280;17365;48.878;8.334;2023-03-16T02:59:35;100410.97;;;0.89;93.60
30598;BME280;17365;48.878;8.334;2023-03-16T03:02:00;100409.50;;;0.94;93.29
30598;BME280;17365;48.878;8.334;2023-03-16T03:04:25;100410.75;;;0.84;93.87
30598;BME280;17365;48.878;8.334;2023-03-16T03:06:50;100415.25;;;0.71;94.09
30598;BME280;17365;48.878;8.334;2023-03-16T03:09:16;100414.06;;;0.82;95.37
30598;BME280;17365;48.878;8.334;2023-03-16T03:11:42;100413.94;;;0.98;94.39
30598;BME280;17365;48.878;8.334;2023-03-16T03:14:07;100412.38;;;0.82;95.00
30598;BME280;17365;48.878;8.334;2023-03-16T03:16:32;100407.28;;;1.02;94.32
30598;BME280;17365;48.878;8.334;2023-03-16T03:18:58;100394.31;;;0.97;93.39
30598;BME280;17365;48.878;8.334;2023-03-16T03:21:23;100395.50;;;0.86;94.51
30598;BME280;17365;48.878;8.334;2023-03-16T03:23:48;100384.25;;;0.45;95.14
30598;BME280;17365;48.878;8.334;2023-03-16T03:26:14;100376.88;;;0.88;94.79
30598;BME280;17365;48.878;8.334;2023-03-16T03:28:40;100385.97;;;0.82;94.55
30598;BME280;17365;48.878;8.334;2023-03-16T03:31:05;100383.34;;;1.00;93.77
30598;BME280;17365;48.878;8.334;2023-03-16T03:33:30;100381.00;;;0.85;94.68
30598;BME280;17365;48.878;8.334;2023-03-16T03:35:58;100369.56;;;0.96;94.28
30598;BME280;17365;48.878;8.334;2023-03-16T03:38:23;100372.75;;;0.53;95.36
30598;BME280;17365;48.878;8.334;2023-03-16T03:40:52;100367.59;;;0.91;94.81
30598;BME280;17365;48.878;8.334;2023-03-16T03:43:18;100371.72;;;1.06;93.66
30598;BME280;17365;48.878;8.334;2023-03-16T03:45:43;100366.56;;;1.05;93.61
30598;BME280;17365;48.878;8.334;2023-03-16T03:48:09;100371.34;;;0.60;95.10
30598;BME280;17365;48.878;8.334;2023-03-16T03:50:34;100377.47;;;0.64;95.85
30598;BME280;17365;48.878;8.334;2023-03-16T03:53:00;100374.88;;;0.81;95.81
30598;BME280;17365;48.878;8.334;2023-03-16T03:55:25;100373.16;;;0.63;95.07
30598;BME280;17365;48.878;8.334;2023-03-16T03:57:50;100382.25;;;0.38;96.53
30598;BME280;17365;48.878;8.334;2023-03-16T04:00:15;100373.03;;;0.60;97.36
30598;BME280;17365;48.878;8.334;2023-03-16T04:02:44;100370.97;;;0.70;96.39
30598;BME280;17365;48.878;8.334;2023-03-16T04:05:09;100368.75;;;0.58;96.45
30598;BME280;17365;48.878;8.334;2023-03-16T04:07:35;100365.00;;;0.89;94.81
30598;BME280;17365;48.878;8.334;2023-03-16T04:10:00;100369.84;;;1.02;93.92
30598;BME280;17365;48.878;8.334;2023-03-16T04:12:25;100373.78;;;0.57;94.80
30598;BME280;17365;48.878;8.334;2023-03-16T04:14:50;100377.69;;;0.87;94.36
30598;BME280;17365;48.878;8.334;2023-03-16T04:17:16;100367.69;;;0.92;94.13
30598;BME280;17365;48.878;8.334;2023-03-16T04:19:41;100374.41;;;0.53;94.34
30598;BME280;17365;48.878;8.334;2023-03-16T04:22:06;100380.66;;;0.05;97.44
30598;BME280;17365;48.878;8.334;2023-03-16T04:24:31;100376.41;;;0.41;97.25
30598;BME280;17365;48.878;8.334;2023-03-16T04:26:58;100373.84;;;-0.13;98.84
30598;BME280;17365;48.878;8.334;2023-03-16T04:29:23;100372.72;;;-0.19;99.83
30598;BME280;17365;48.878;8.334;2023-03-16T04:31:49;100373.44;;;0.14;99.47
30598;BME280;17365;48.878;8.334;2023-03-16T04:34:15;100374.91;;;0.26;98.10
30598;BME280;17365;48.878;8.334;2023-03-16T04:36:40;100372.28;;;-0.11;97.67
30598;BME280;17365;48.878;8.334;2023-03-16T04:39:06;100374.63;;;0.03;99.24
30598;BME280;17365;48.878;8.334;2023-03-16T04:41:31;100367.47;;;0.13;98.87
30598;BME280;17365;48.878;8.334;2023-03-16T04:43:57;100380.06;;;0.28;98.11
30598;BME280;17365;48.878;8.334;2023-03-16T04:46:23;100373.72;;;0.20;97.33
30598;BME280;17365;48.878;8.334;2023-03-16T04:48:48;100373.13;;;0.43;96.73
30598;BME280;17365;48.878;8.334;2023-03-16T04:51:13;100366.03;;;0.55;95.56
30598;BME280;17365;48.878;8.334;2023-03-16T04:53:39;100374.66;;;0.57;95.33
30598;BME280;17365;48.878;8.334;2023-03-16T04:56:04;100372.28;;;0.62;94.90
30598;BME280;17365;48.878;8.334;2023-03-16T04:58:31;100380.44;;;0.73;93.98
30598;BME280;17365;48.878;8.334;2023-03-16T05:00:56;100373.47;;;0.69;93.74
30598;BME280;17365;48.878;8.334;2023-03-16T05:03:22;100366.84;;;0.54;94.44
30598;BME280;17365;48.878;8.334;2023-03-16T05:05:47;100375.03;;;0.67;93.70
30598;BME280;17365;48.878;8.334;2023-03-16T05:08:13;100369.88;;;0.46;94.13
30598;BME280;17365;48.878;8.334;2023-03-16T05:10:38;100370.66;;;0.82;93.42
30598;BME280;17365;48.878;8.334;2023-03-16T05:13:04;100375.41;;;0.74;93.70
30598;BME280;17365;48.878;8.334;2023-03-16T05:15:30;100372.22;;;0.61;94.17
30598;BME280;17365;48.878;8.334;2023-03-16T05:17:55;100374.06;;;0.82;93.11
30598;BME280;17365;48.878;8.334;2023-03-16T05:20:21;100365.50;;;0.63;93.42
30598;BME280;17365;48.878;8.334;2023-03-16T05:22:46;100364.13;;;0.69;93.54
30598;BME280;17365;48.878;8.334;2023-03-16T05:25:12;100365.50;;;0.63;93.92
30598;BME280;17365;48.878;8.334;2023-03-16T05:27:45;100360.09;;;0.74;93.29
30598;BME280;17365;48.878;8.334;2023-03-16T05:30:11;100363.50;;;0.75;93.53
30598;BME280;17365;48.878;8.334;2023-03-16T05:32:37;100355.09;;;0.77;93.32
30598;BME280;17365;48.878;8.334;2023-03-16T05:35:03;100363.72;;;0.79;92.62
30598;BME280;17365;48.878;8.334;2023-03-16T05:37:29;100361.69;;;0.72;92.26
30598;BME280;17365;48.878;8.334;2023-03-16T05:39:55;100351.44;;;0.53;93.19
30598;BME280;17365;48.878;8.334;2023-03-16T05:42:21;100350.31;;;0.46;93.97
30598;BME280;17365;48.878;8.334;2023-03-16T05:44:47;100354.38;;;0.61;93.67
30598;BME280;17365;48.878;8.334;2023-03-16T05:47:13;100353.09;;;0.70;93.37
30598;BME280;17365;48.878;8.334;2023-03-16T05:49:38;100355.81;;;0.55;93.46
30598;BME280;17365;48.878;8.334;2023-03-16T05:52:03;100357.59;;;0.76;93.12
30598;BME280;17365;48.878;8.334;2023-03-16T05:54:29;100357.19;;;0.67;92.67
30598;BME280;17365;48.878;8.334;2023-03-16T05:56:54;100352.50;;;0.76;92.53
30598;BME280;17365;48.878;8.334;2023-03-16T05:59:22;100353.03;;;0.69;93.15
30598;BME280;17365;48.878;8.334;2023-03-16T06:01:49;100346.72;;;0.80;92.44
30598;BME280;17365;48.878;8.334;2023-03-16T06:04:15;100357.88;;;0.82;92.04
30598;BME280;17365;48.878;8.334;2023-03-16T06:06:40;100352.22;;;0.89;91.47
30598;BME280;17365;48.878;8.334;2023-03-16T06:09:06;100352.75;;;1.01;90.73
30598;BME280;17365;48.878;8.334;2023-03-16T06:11:31;100359.22;;;1.12;90.36
30598;BME280;17365;48.878;8.334;2023-03-16T06:13:57;100359.16;;;1.11;90.24
30598;BME280;17365;48.878;8.334;2023-03-16T06:16:22;100366.25;;;0.60;92.07
30598;BME280;17365;48.878;8.334;2023-03-16T06:18:47;100355.91;;;0.76;92.45
30598;BME280;17365;48.878;8.334;2023-03-16T06:21:13;100358.84;;;1.03;91.73
30598;BME280;17365;48.878;8.334;2023-03-16T06:23:38;100357.69;;;1.16;91.07
30598;BME280;17365;48.878;8.334;2023-03-16T06:26:03;100363.72;;;1.18;91.17
30598;BME280;17365;48.878;8.334;2023-03-16T06:28:29;100354.44;;;1.20;90.51
30598;BME280;17365;48.878;8.334;2023-03-16T06:30:55;100358.50;;;1.15;90.42
30598;BME280;17365;48.878;8.334;2023-03-16T06:33:20;100364.25;;;1.11;90.72
30598;BME280;17365;48.878;8.334;2023-03-16T06:35:46;100362.44;;;0.89;91.87
30598;BME280;17365;48.878;8.334;2023-03-16T06:38:12;100361.47;;;1.45;90.22
30598;BME280;17365;48.878;8.334;2023-03-16T06:40:37;100363.72;;;0.99;92.57
30598;BME280;17365;48.878;8.334;2023-03-16T06:43:02;100367.50;;;1.26;92.09
30598;BME280;17365;48.878;8.334;2023-03-16T06:45:27;100370.34;;;1.34;92.01
30598;BME280;17365;48.878;8.334;2023-03-16T06:47:53;100365.47;;;1.19;93.07
30598;BME280;17365;48.878;8.334;2023-03-16T06:50:18;100356.78;;;1.56;92.18
30598;BME280;17365;48.878;8.334;2023-03-16T06:52:43;100356.00;;;1.78;90.81
30598;BME280;17365;48.878;8.334;2023-03-16T06:55:08;100361.34;;;1.42;92.67
30598;BME280;17365;48.878;8.334;2023-03-16T06:57:34;100358.97;;;1.67;92.54
30598;BME280;17365;48.878;8.334;2023-03-16T06:59:59;100357.94;;;1.62;93.08
30598;BME280;17365;48.878;8.334;2023-03-16T07:02:24;100357.00;;;1.20;97.04
30598;BME280;17365;48.878;8.334;2023-03-16T07:04:50;100357.06;;;1.22;96.88
30598;BME280;17365;48.878;8.334;2023-03-16T07:07:15;100358.78;;;1.42;96.78
30598;BME280;17365;48.878;8.334;2023-03-16T07:09:41;100363.72;;;1.58;96.48
30598;BME280;17365;48.878;8.334;2023-03-16T07:12:06;100372.84;;;1.32;97.22
30598;BME280;17365;48.878;8.334;2023-03-16T07:14:31;100372.03;;;1.33;98.79
30598;BME280;17365;48.878;8.334;2023-03-16T07:16:57;100371.53;;;1.82;96.40
30598;BME280;17365;48.878;8.334;2023-03-16T07:19:22;100370.59;;;1.80;96.00
30598;BME280;17365;48.878;8.334;2023-03-16T07:21:47;100369.22;;;1.88;96.06
30598;BME280;17365;48.878;8.334;2023-03-16T07:24:13;100371.28;;;2.40;94.64
30598;BME280;17365;48.878;8.334;2023-03-16T07:26:39;100362.53;;;2.35;93.43
30598;BME280;17365;48.878;8.334;2023-03-16T07:29:04;100368.38;;;2.53;92.47
30598;BME280;17365;48.878;8.334;2023-03-16T07:31:30;100365.63;;;2.49;92.09
30598;BME280;17365;48.878;8.334;2023-03-16T07:33:56;100370.34;;;1.95;94.22
30598;BME280;17365;48.878;8.334;2023-03-16T07:36:22;100364.94;;;2.30;96.19
30598;BME280;17365;48.878;8.334;2023-03-16T07:38:47;100371.06;;;2.13;95.69
30598;BME280;17365;48.878;8.334;2023-03-16T07:41:12;100370.28;;;2.37;95.46
30598;BME280;17365;48.878;8.334;2023-03-16T07:43:38;100375.88;;;2.49;94.72
30598;BME280;17365;48.878;8.334;2023-03-16T07:46:03;100365.22;;;2.16;95.56
30598;BME280;17365;48.878;8.334;2023-03-16T07:48:28;100364.19;;;2.33;95.81
30598;BME280;17365;48.878;8.334;2023-03-16T07:50:53;100362.00;;;2.88;93.98
30598;BME280;17365;48.878;8.334;2023-03-16T07:53:18;100359.28;;;3.08;92.38
30598;BME280;17365;48.878;8.334;2023-03-16T07:55:44;100352.00;;;3.44;90.08
30598;BME280;17365;48.878;8.334;2023-03-16T07:58:09;100347.75;;;3.70;89.31
30598;BME280;17365;48.878;8.334;2023-03-16T08:00:35;100351.09;;;3.94;87.31
30598;BME280;17365;48.878;8.334;2023-03-16T08:03:01;100344.56;;;4.04;87.23
30598;BME280;17365;48.878;8.334;2023-03-16T08:05:26;100337.19;;;3.86;86.72
30598;BME280;17365;48.878;8.334;2023-03-16T08:07:51;100336.97;;;4.07;86.34
30598;BME280;17365;48.878;8.334;2023-03-16T08:10:17;100325.00;;;4.07;85.51
30598;BME280;17365;48.878;8.334;2023-03-16T08:12:43;100325.56;;;4.26;86.16
30598;BME280;17365;48.878;8.334;2023-03-16T08:15:08;100334.41;;;3.80;85.91
30598;BME280;17365;48.878;8.334;2023-03-16T08:17:34;100325.44;;;4.21;86.35
30598;BME280;17365;48.878;8.334;2023-03-16T08:19:59;100337.22;;;3.88;84.93
30598;BME280;17365;48.878;8.334;2023-03-16T08:22:24;100330.53;;;4.20;86.32
30598;BME280;17365;48.878;8.334;2023-03-16T08:24:50;100334.69;;;4.16;85.22
30598;BME280;17365;48.878;8.334;2023-03-16T08:27:16;100333.09;;;4.48;84.87
30598;BME280;17365;48.878;8.334;2023-03-16T08:29:43;100339.03;;;4.19;86.63
30598;BME280;17365;48.878;8.334;2023-03-16T08:32:08;100342.63;;;4.24;86.37
30598;BME280;17365;48.878;8.334;2023-03-16T08:34:33;100326.13;;;4.44;87.02
30598;BME280;17365;48.878;8.334;2023-03-16T08:37:00;100329.13;;;4.88;85.28
30598;BME280;17365;48.878;8.334;2023-03-16T08:39:25;100333.41;;;4.87;85.11
30598;BME280;17365;48.878;8.334;2023-03-16T08:41:51;100342.97;;;4.93;85.37
30598;BME280;17365;48.878;8.334;2023-03-16T08:44:17;100352.81;;;5.09;84.37
30598;BME280;17365;48.878;8.334;2023-03-16T08:46:44;100344.97;;;5.03;83.69
30598;BME280;17365;48.878;8.334;2023-03-16T08:49:09;100354.44;;;5.36;81.66
30598;BME280;17365;48.878;8.334;2023-03-16T08:51:34;100349.56;;;5.46;79.93
30598;BME280;17365;48.878;8.334;2023-03-16T08:54:00;100348.25;;;5.62;79.83
30598;BME280;17365;48.878;8.334;2023-03-16T08:56:26;100346.19;;;5.82;79.29
30598;BME280;17365;48.878;8.334;2023-03-16T08:58:52;100341.16;;;5.88;78.83
30598;BME280;17365;48.878;8.334;2023-03-16T09:01:18;100338.75;;;5.93;76.70
30598;BME280;17365;48.878;8.334;2023-03-16T09:03:43;100337.91;;;5.94;77.55
30598;BME280;17365;48.878;8.334;2023-03-16T09:06:10;100335.56;;;5.70;78.46
30598;BME280;17365;48.878;8.334;2023-03-16T09:08:36;100319.25;;;5.69;78.48
30598;BME280;17365;48.878;8.334;2023-03-16T09:11:07;100314.19;;;6.07;78.22
30598;BME280;17365;48.878;8.334;2023-03-16T09:13:33;100311.59;;;6.07;78.17
30598;BME280;17365;48.878;8.334;2023-03-16T09:15:58;100318.19;;;5.94;78.54
30598;BME280;17365;48.878;8.334;2023-03-16T09:18:24;100306.78;;;6.60;77.16
30598;BME280;17365;48.878;8.334;2023-03-16T09:20:51;100296.09;;;6.85;75.86
30598;BME280;17365;48.878;8.334;2023-03-16T09:23:17;100299.72;;;6.93;75.99
30598;BME280;17365;48.878;8.334;2023-03-16T09:25:43;100291.94;;;6.50;75.73
30598;BME280;17365;48.878;8.334;2023-03-16T09:28:09;100296.31;;;6.54;77.33
30598;BME280;17365;48.878;8.334;2023-03-16T09:30:35;100298.88;;;6.52;78.11
30598;BME280;17365;48.878;8.334;2023-03-16T09:33:00;100292.50;;;6.77;77.24
30598;BME280;17365;48.878;8.334;2023-03-16T09:35:25;100295.00;;;7.18;76.40
30598;BME280;17365;48.878;8.334;2023-03-16T09:37:50;100298.88;;;6.52;77.14
30598;BME280;17365;48.878;8.334;2023-03-16T09:40:23;100300.53;;;6.91;77.20
30598;BME280;17365;48.878;8.334;2023-03-16T09:42:54;100309.69;;;7.20;75.79
30598;BME280;17365;48.878;8.334;2023-03-16T09:47:51;100288.06;;;7.14;76.71
30598;BME280;17365;48.878;8.334;2023-03-16T09:50:25;100280.75;;;7.38;75.91
30598;BME280;17365;48.878;8.334;2023-03-16T09:52:56;100282.84;;;7.59;74.95
30598;BME280;17365;48.878;8.334;2023-03-16T09:55:29;100287.19;;;7.63;74.65
30598;BME280;17365;48.878;8.334;2023-03-16T09:57:56;100278.84;;;7.79;73.66
30598;BME280;17365;48.878;8.334;2023-03-16T10:05:35;100254.16;;;7.97;74.02
30598;BME280;17365;48.878;8.334;2023-03-16T10:12:57;100254.88;;;8.49;71.67
30598;BME280;17365;48.878;8.334;2023-03-16T10:15:24;100245.88;;;8.21;69.92
30598;BME280;17365;48.878;8.334;2023-03-16T10:18:01;100246.78;;;8.24;69.92
30598;BME280;17365;48.878;8.334;2023-03-16T10:20:27;100239.56;;;8.00;70.80
30598;BME280;17365;48.878;8.334;2023-03-16T10:22:57;100237.63;;;8.49;70.71
30598;BME280;17365;48.878;8.334;2023-03-16T10:25:34;100231.72;;;8.59;69.16
30598;BME280;17365;48.878;8.334;2023-03-16T10:28:02;100230.38;;;8.92;69.02
30598;BME280;17365;48.878;8.334;2023-03-16T10:30:32;100227.84;;;8.95;68.78
30598;BME280;17365;48.878;8.334;2023-03-16T10:33:02;100235.75;;;9.12;67.49
30598;BME280;17365;48.878;8.334;2023-03-16T10:35:49;100231.47;;;9.17;66.91
30598;BME280;17365;48.878;8.334;2023-03-16T10:43:45;100226.53;;;9.41;65.47
30598;BME280;17365;48.878;8.334;2023-03-16T10:46:11;100231.63;;;9.32;64.21
30598;BME280;17365;48.878;8.334;2023-03-16T10:48:37;100231.91;;;9.67;64.17
30598;BME280;17365;48.878;8.334;2023-03-16T10:51:05;100234.63;;;9.85;62.26
30598;BME280;17365;48.878;8.334;2023-03-16T10:53:33;100231.34;;;10.11;63.96
30598;BME280;17365;48.878;8.334;2023-03-16T10:56:00;100227.91;;;10.18;63.81
30598;BME280;17365;48.878;8.334;2023-03-16T10:58:30;100221.97;;;10.33;61.72
30598;BME280;17365;48.878;8.334;2023-03-16T11:00:56;100219.38;;;10.40;59.17
30598;BME280;17365;48.878;8.334;2023-03-16T11:03:28;100214.28;;;10.59;59.52
30598;BME280;17365;48.878;8.334;2023-03-16T11:06:03;100210.03;;;10.94;58.23
30598;BME280;17365;48.878;8.334;2023-03-16T11:08:47;100211.75;;;10.85;56.48
30598;BME280;17365;48.878;8.334;2023-03-16T11:11:13;100200.53;;;10.96;55.67
30598;BME280;17365;48.878;8.334;2023-03-16T11:13:44;100194.50;;;11.03;56.34
30598;BME280;17365;48.878;8.334;2023-03-16T11:18:59;100204.03;;;11.15;53.32
30598;BME280;17365;48.878;8.334;2023-03-16T11:21:47;100185.00;;;11.33;53.88
30598;BME280;17365;48.878;8.334;2023-03-16T11:27:03;100185.84;;;11.56;53.07
30598;BME280;17365;48.878;8.334;2023-03-16T11:29:40;100183.25;;;11.14;53.20
30598;BME280;17365;48.878;8.334;2023-03-16T11:32:17;100178.03;;;10.95;53.31
30598;BME280;17365;48.878;8.334;2023-03-16T11:34:44;100178.03;;;11.07;53.66
30598;BME280;17365;48.878;8.334;2023-03-16T11:39:52;100170.22;;;11.72;51.91
30598;BME280;17365;48.878;8.334;2023-03-16T11:42:26;100168.53;;;11.29;51.12
30598;BME280;17365;48.878;8.334;2023-03-16T11:50:12;100156.41;;;11.51;52.11
30598;BME280;17365;48.878;8.334;2023-03-16T11:52:58;100150.34;;;11.28;52.59
30598;BME280;17365;48.878;8.334;2023-03-16T11:55:35;100151.16;;;11.83;52.67
30598;BME280;17365;48.878;8.334;2023-03-16T11:58:19;100144.31;;;11.06;51.50
30598;BME280;17365;48.878;8.334;2023-03-16T12:00:51;100139.91;;;11.63;52.11
30598;BME280;17365;48.878;8.334;2023-03-16T12:05:54;100132.16;;;11.40;51.31
30598;BME280;17365;48.878;8.334;2023-03-16T12:08:55;100139.00;;;11.78;51.77
30598;BME280;17365;48.878;8.334;2023-03-16T12:11:15;100134.72;;;11.71;52.47
30598;BME280;17365;48.878;8.334;2023-03-16T12:13:55;100141.59;;;11.94;51.07
30598;BME280;17365;48.878;8.334;2023-03-16T12:16:41;100139.94;;;11.80;50.19
30598;BME280;17365;48.878;8.334;2023-03-16T12:19:32;100134.66;;;12.01;49.66
30598;BME280;17365;48.878;8.334;2023-03-16T12:22:00;100129.56;;;11.43;49.75
30598;BME280;17365;48.878;8.334;2023-03-16T12:24:27;100131.22;;;11.85;50.06
30598;BME280;17365;48.878;8.334;2023-03-16T12:26:56;100125.22;;;11.66;50.94
30598;BME280;17365;48.878;8.334;2023-03-16T12:31:57;100110.38;;;11.99;51.93
30598;BME280;17365;48.878;8.334;2023-03-16T12:39:43;100092.13;;;12.16;50.57
30598;BME280;17365;48.878;8.334;2023-03-16T12:42:28;100093.91;;;12.05;50.13
30598;BME280;17365;48.878;8.334;2023-03-16T12:45:01;100093.84;;;12.17;49.45
30598;BME280;17365;48.878;8.334;2023-03-16T12:50:15;100085.09;;;12.30;48.60
30598;BME280;17365;48.878;8.334;2023-03-16T12:52:41;100088.72;;;12.03;48.16
30598;BME280;17365;48.878;8.334;2023-03-16T12:55:11;100086.91;;;12.17;48.64
30598;BME280;17365;48.878;8.334;2023-03-16T12:57:38;100086.09;;;12.06;48.35
30598;BME280;17365;48.878;8.334;2023-03-16T13:00:04;100084.41;;;11.98;49.03
30598;BME280;17365;48.878;8.334;2023-03-16T13:02:33;100084.31;;;12.17;48.62
30598;BME280;17365;48.878;8.334;2023-03-16T13:05:07;100088.66;;;12.14;48.46
30598;BME280;17365;48.878;8.334;2023-03-16T13:07:33;100084.19;;;12.37;48.60
30598;BME280;17365;48.878;8.334;2023-03-16T13:12:33;100072.06;;;12.33;48.59
30598;BME280;17365;48.878;8.334;2023-03-16T13:17:43;100062.38;;;12.58;48.81
30598;BME280;17365;48.878;8.334;2023-03-16T13:22:44;100062.47;;;12.43;48.29
30598;BME280;17365;48.878;8.334;2023-03-16T13:25:33;100060.78;;;12.37;48.34
30598;BME280;17365;48.878;8.334;2023-03-16T13:28:00;100051.81;;;12.78;48.05
30598;BME280;17365;48.878;8.334;2023-03-16T13:30:27;100051.59;;;13.04;46.62
30598;BME280;17365;48.878;8.334;2023-03-16T13:32:54;100048.22;;;12.90;45.79
30598;BME280;17365;48.878;8.334;2023-03-16T13:35:20;100044.66;;;13.04;44.61
30598;BME280;17365;48.878;8.334;2023-03-16T13:37:48;100039.59;;;12.86;44.35
30598;BME280;17365;48.878;8.334;2023-03-16T13:40:22;100041.25;;;12.95;44.63
30598;BME280;17365;48.878;8.334;2023-03-16T13:42:48;100024.44;;;13.29;45.09
30598;BME280;17365;48.878;8.334;2023-03-16T13:45:18;100030.13;;;12.77;43.83
30598;BME280;17365;48.878;8.334;2023-03-16T13:47:44;100030.91;;;12.87;43.94
30598;BME280;17365;48.878;8.334;2023-03-16T13:50:13;100013.28;;;13.13;43.53
30598;BME280;17365;48.878;8.334;2023-03-16T13:52:39;100012.50;;;13.05;43.13